Time;durP1;ratioP1;P1;durP2;ratioP2;P2;SDS_P1;SDS_P2;PMS_P1;PMS_P2;Temp;Humidity;BMP_temperature;BMP_pressure;BME280_temperature;BME280_humidity;BME280_pressure;Samples;Min_cycle;Max_cycle;Signal;HPM_P1;HPM_P2
2023/06/11 00:00:23;;;;;;;;;;;22.40;93.10;;;;;;5096261;28;19919;-43
2023/06/11 00:02:53;;;;;;;;;;;22.40;93.10;;;;;;5096252;28;19908;-42
2023/06/11 00:05:22;;;;;;;;;;;22.40;93.10;;;;;;5096320;28;19908;-46
2023/06/11 00:07:48;;;;;;;;;;;22.40;93.10;;;;;;5096221;28;19912;-44
2023/06/11 00:10:15;;;;;;;;;;;22.40;93.10;;;;;;5096395;28;20266;-46
2023/06/11 00:12:40;;;;;;;;;;;22.40;93.10;;;;;;5096024;28;19920;-49
2023/06/11 00:15:06;;;;;;;;;;;22.40;93.10;;;;;;5095785;28;19908;-43
2023/06/11 00:17:33;;;;;;;;;;;22.40;93.30;;;;;;5096029;28;19912;-44
2023/06/11 00:19:59;;;;;;;;;;;22.40;93.20;;;;;;5095803;28;19995;-47
2023/06/11 00:22:26;;;;;;;;;;;22.40;93.10;;;;;;5095986;28;19954;-42
2023/06/11 00:24:52;;;;;;;;;;;22.40;93.10;;;;;;5095884;28;19908;-47
2023/06/11 00:27:17;;;;;;;;;;;22.40;93.10;;;;;;5096153;28;20366;-47
2023/06/11 00:29:42;;;;;;;;;;;22.40;93.10;;;;;;5095526;28;20056;-42
2023/06/11 00:32:08;;;;;;;;;;;22.40;93.20;;;;;;5095737;28;19931;-46
2023/06/11 00:34:34;;;;;;;;;;;22.40;93.20;;;;;;5095708;28;19914;-42
2023/06/11 00:36:59;;;;;;;;;;;22.40;93.20;;;;;;5095518;28;19908;-44
2023/06/11 00:39:25;;;;;;;;;;;22.40;93.10;;;;;;5095590;28;19916;-44
2023/06/11 00:41:51;;;;;;;;;;;22.40;93.20;;;;;;5095614;28;19912;-43
2023/06/11 00:44:21;;;;;;;;;;;22.40;93.20;;;;;;5095240;28;19908;-47
2023/06/11 00:46:48;;;;;;;;;;;22.40;93.20;;;;;;5095360;28;20414;-43
2023/06/11 00:49:17;;;;;;;;;;;22.40;93.20;;;;;;5095193;28;20397;-43
2023/06/11 00:51:44;;;;;;;;;;;22.40;93.10;;;;;;5095336;28;20018;-42
2023/06/11 00:54:12;;;;;;;;;;;22.40;93.20;;;;;;5094865;28;19946;-42
2023/06/11 00:56:39;;;;;;;;;;;22.40;93.30;;;;;;5095008;28;20005;-44
2023/06/11 00:59:06;;;;;;;;;;;22.40;93.30;;;;;;5095223;28;19908;-44
2023/06/11 01:01:35;;;;;;;;;;;22.30;93.30;;;;;;5094830;28;20362;-46
2023/06/11 01:04:01;;;;;;;;;;;22.40;93.30;;;;;;5094958;28;20410;-42
2023/06/11 01:06:28;;;;;;;;;;;22.40;93.30;;;;;;5094847;28;19981;-43
2023/06/11 01:08:57;;;;;;;;;;;22.30;93.30;;;;;;5095060;28;19970;-46
2023/06/11 01:11:23;;;;;;;;;;;22.30;93.20;;;;;;5094920;28;20010;-42
2023/06/11 01:13:49;;;;;;;;;;;22.30;93.30;;;;;;5076836;28;20373;-43
2023/06/11 01:16:19;;;;;;;;;;;22.30;93.40;;;;;;5094928;28;19914;-44
2023/06/11 01:19:04;;;;;;;;;;;22.30;93.40;;;;;;5094867;28;20038;-44
2023/06/11 01:21:33;;;;;;;;;;;22.30;93.40;;;;;;5063098;28;19914;-46
2023/06/11 01:23:58;;;;;;;;;;;22.30;93.50;;;;;;5094871;28;19908;-46
2023/06/11 01:26:33;;;;;;;;;;;22.40;93.50;;;;;;5094489;28;19915;-44
2023/06/11 01:28:59;;;;;;;;;;;22.30;93.30;;;;;;5094711;28;20000;-42
2023/06/11 01:31:29;;;;;;;;;;;22.30;93.40;;;;;;5094548;28;19915;-43
2023/06/11 01:33:56;;;;;;;;;;;22.30;93.40;;;;;;5094699;28;19962;-41
2023/06/11 01:36:24;;;;;;;;;;;22.30;93.40;;;;;;5094522;28;19908;-42
2023/06/11 01:38:51;;;;;;;;;;;22.30;93.40;;;;;;5094635;28;20355;-42
2023/06/11 01:41:16;;;;;;;;;;;22.30;93.40;;;;;;5094309;28;19947;-48
2023/06/11 01:43:42;;;;;;;;;;;22.30;93.40;;;;;;5094557;28;19912;-43
2023/06/11 01:46:07;;;;;;;;;;;22.30;93.50;;;;;;5094375;28;19911;-42
2023/06/11 01:48:33;;;;;;;;;;;22.30;93.60;;;;;;5094304;28;19920;-44
2023/06/11 01:50:59;;;;;;;;;;;22.30;93.70;;;;;;5094431;28;19908;-45
2023/06/11 01:53:25;;;;;;;;;;;22.30;93.60;;;;;;5094304;28;20351;-44
2023/06/11 01:55:50;;;;;;;;;;;22.30;93.70;;;;;;5094105;28;19953;-44
2023/06/11 01:58:16;;;;;;;;;;;22.30;93.50;;;;;;5093603;28;20298;-43
2023/06/11 02:00:42;;;;;;;;;;;22.30;93.70;;;;;;5094285;28;19908;-45
2023/06/11 02:03:08;;;;;;;;;;;22.30;93.70;;;;;;5094028;28;19954;-43
2023/06/11 02:05:34;;;;;;;;;;;22.30;93.60;;;;;;5094243;28;19916;-44
2023/06/11 02:08:00;;;;;;;;;;;22.30;93.70;;;;;;5094377;28;19994;-44
2023/06/11 02:10:25;;;;;;;;;;;22.30;93.70;;;;;;5094188;28;20006;-43
2023/06/11 02:12:50;;;;;;;;;;;22.30;93.70;;;;;;5094166;28;19930;-43
2023/06/11 02:15:16;;;;;;;;;;;22.30;93.70;;;;;;5094167;28;19908;-45
2023/06/11 02:17:41;;;;;;;;;;;22.30;93.70;;;;;;5093847;28;19908;-43
2023/06/11 02:20:08;;;;;;;;;;;22.30;93.70;;;;;;5094176;28;19991;-46
2023/06/11 02:22:34;;;;;;;;;;;22.30;93.60;;;;;;5094114;28;19959;-44
2023/06/11 02:25:00;;;;;;;;;;;22.30;93.70;;;;;;5093772;28;20280;-43
2023/06/11 02:27:25;;;;;;;;;;;22.30;93.70;;;;;;5094360;28;19915;-44
2023/06/11 02:29:51;;;;;;;;;;;22.30;93.70;;;;;;5093742;28;19908;-43
2023/06/11 02:32:16;;;;;;;;;;;22.30;93.80;;;;;;5093677;28;19924;-43
2023/06/11 02:34:41;;;;;;;;;;;22.30;93.90;;;;;;5093776;28;19923;-45
2023/06/11 02:37:07;;;;;;;;;;;22.30;93.80;;;;;;5094006;28;20351;-43
2023/06/11 02:39:33;;;;;;;;;;;22.30;93.70;;;;;;5094286;28;19920;-44
2023/06/11 02:41:58;;;;;;;;;;;22.30;93.70;;;;;;5093651;28;20358;-43
2023/06/11 02:44:24;;;;;;;;;;;22.30;93.80;;;;;;5093665;28;19908;-45
2023/06/11 02:46:49;;;;;;;;;;;22.30;93.80;;;;;;5093519;28;19920;-45
2023/06/11 02:49:15;;;;;;;;;;;22.30;93.80;;;;;;5093860;28;19908;-43
2023/06/11 02:51:40;;;;;;;;;;;22.30;94.00;;;;;;5093451;28;19912;-43
2023/06/11 02:54:07;;;;;;;;;;;22.30;93.80;;;;;;5093571;28;20002;-44
2023/06/11 02:56:32;;;;;;;;;;;22.30;93.70;;;;;;5093882;28;20188;-43
2023/06/11 02:58:58;;;;;;;;;;;22.30;93.80;;;;;;5093484;28;19953;-43
2023/06/11 03:01:23;;;;;;;;;;;22.30;93.90;;;;;;5093456;28;19957;-42
2023/06/11 03:03:49;;;;;;;;;;;22.30;93.90;;;;;;5094030;28;19914;-42
2023/06/11 03:06:14;;;;;;;;;;;22.30;93.70;;;;;;5093688;28;19908;-43
2023/06/11 03:08:40;;;;;;;;;;;22.30;93.80;;;;;;5095759;28;19912;-43
2023/06/11 03:11:05;;;;;;;;;;;22.30;93.90;;;;;;5097350;28;19908;-42
2023/06/11 03:13:31;;;;;;;;;;;22.30;93.90;;;;;;5079132;28;19916;-45
2023/06/11 03:15:56;;;;;;;;;;;22.30;93.90;;;;;;5096976;28;19961;-43
2023/06/11 03:18:22;;;;;;;;;;;22.30;94.00;;;;;;5096993;28;19948;-44
2023/06/11 03:20:47;;;;;;;;;;;22.30;94.00;;;;;;5079046;28;19947;-45
2023/06/11 03:23:14;;;;;;;;;;;22.30;94.00;;;;;;5096941;28;19912;-42
2023/06/11 03:25:39;;;;;;;;;;;22.30;94.00;;;;;;5096950;28;19935;-44
2023/06/11 03:28:05;;;;;;;;;;;22.30;94.00;;;;;;5096739;28;19908;-43
2023/06/11 03:30:30;;;;;;;;;;;22.30;94.00;;;;;;5097047;28;19908;-42
2023/06/11 03:32:56;;;;;;;;;;;22.30;94.00;;;;;;5096911;28;19923;-44
2023/06/11 03:35:21;;;;;;;;;;;22.30;94.10;;;;;;5096717;28;19916;-43
2023/06/11 03:37:47;;;;;;;;;;;22.30;94.10;;;;;;5096671;28;19993;-45
2023/06/11 03:40:12;;;;;;;;;;;22.30;94.00;;;;;;5096830;28;19912;-44
2023/06/11 03:42:38;;;;;;;;;;;22.30;94.00;;;;;;5096854;28;19908;-42
2023/06/11 03:45:04;;;;;;;;;;;22.30;93.90;;;;;;5096529;28;19916;-44
2023/06/11 03:47:29;;;;;;;;;;;22.30;93.90;;;;;;5096657;28;20018;-42
2023/06/11 03:49:54;;;;;;;;;;;22.30;94.00;;;;;;5096389;28;19909;-41
2023/06/11 03:52:20;;;;;;;;;;;22.30;94.00;;;;;;5096552;28;19986;-43
2023/06/11 03:54:45;;;;;;;;;;;22.30;93.90;;;;;;5096294;28;19910;-43
2023/06/11 03:57:12;;;;;;;;;;;22.30;94.00;;;;;;5096693;28;19908;-43
2023/06/11 03:59:38;;;;;;;;;;;22.30;94.00;;;;;;5096497;28;19953;-45
2023/06/11 04:02:03;;;;;;;;;;;22.30;94.00;;;;;;5096480;28;19912;-42
2023/06/11 04:04:29;;;;;;;;;;;22.30;94.10;;;;;;5096440;28;19908;-44
2023/06/11 04:06:54;;;;;;;;;;;22.30;94.00;;;;;;5096379;28;20313;-43
2023/06/11 04:09:20;;;;;;;;;;;22.40;94.10;;;;;;5096223;28;19974;-42
2023/06/11 04:11:46;;;;;;;;;;;22.40;94.10;;;;;;5096181;28;20266;-46
2023/06/11 04:14:11;;;;;;;;;;;22.40;94.10;;;;;;5096004;28;19912;-42
2023/06/11 04:16:36;;;;;;;;;;;22.40;94.10;;;;;;5078010;28;19908;-45
2023/06/11 04:19:02;;;;;;;;;;;22.40;94.10;;;;;;5095537;28;19965;-44
2023/06/11 04:21:27;;;;;;;;;;;22.40;94.10;;;;;;5095464;28;19915;-43
2023/06/11 04:23:53;;;;;;;;;;;22.40;94.10;;;;;;5096103;28;20365;-42
2023/06/11 04:26:20;;;;;;;;;;;22.40;94.10;;;;;;5077849;28;20312;-42
2023/06/11 04:28:48;;;;;;;;;;;22.50;94.10;;;;;;5095699;28;19915;-42
2023/06/11 04:31:14;;;;;;;;;;;22.50;94.10;;;;;;5095773;28;20354;-44
2023/06/11 04:33:40;;;;;;;;;;;22.50;94.00;;;;;;5095727;28;19920;-46
2023/06/11 04:36:10;;;;;;;;;;;22.50;94.00;;;;;;5095751;28;19955;-43
2023/06/11 04:38:36;;;;;;;;;;;22.50;93.10;;;;;;5095771;28;20262;-43
2023/06/11 04:41:02;;;;;;;;;;;22.50;93.30;;;;;;5096027;28;20365;-42
2023/06/11 04:43:33;;;;;;;;;;;22.50;93.40;;;;;;5093268;28;20304;-45
2023/06/11 04:45:59;;;;;;;;;;;22.50;93.50;;;;;;5095413;28;19912;-45
2023/06/11 04:48:25;;;;;;;;;;;22.50;93.60;;;;;;5095205;28;20374;-46
2023/06/11 04:50:51;;;;;;;;;;;22.50;93.70;;;;;;5095575;28;19908;-46
2023/06/11 04:53:23;;;;;;;;;;;22.60;93.80;;;;;;5092632;28;19920;-44
2023/06/11 04:55:49;;;;;;;;;;;22.60;93.80;;;;;;5102854;28;19911;-45
2023/06/11 04:58:15;;;;;;;;;;;22.60;93.80;;;;;;5109692;28;20247;-44
2023/06/11 05:00:40;;;;;;;;;;;22.60;93.70;;;;;;5107717;28;19965;-48
2023/06/11 05:03:06;;;;;;;;;;;22.60;93.80;;;;;;5094623;28;19912;-50
2023/06/11 05:05:32;;;;;;;;;;;22.60;93.80;;;;;;5113872;28;20342;-45
2023/06/11 05:07:57;;;;;;;;;;;22.60;93.70;;;;;;5109002;28;19999;-47
2023/06/11 05:10:23;;;;;;;;;;;22.60;93.60;;;;;;5095049;28;19977;-44
2023/06/11 05:12:48;;;;;;;;;;;22.60;93.40;;;;;;5089998;28;19920;-46
2023/06/11 05:15:14;;;;;;;;;;;22.60;93.20;;;;;;5083806;28;19908;-47
2023/06/11 05:17:39;;;;;;;;;;;22.50;93.00;;;;;;5109895;28;20003;-43
2023/06/11 05:20:05;;;;;;;;;;;22.50;92.80;;;;;;5115669;28;19911;-46
2023/06/11 05:22:31;;;;;;;;;;;22.60;92.80;;;;;;5115370;28;19908;-44
2023/06/11 05:24:56;;;;;;;;;;;22.60;92.90;;;;;;5115566;28;19908;-46
2023/06/11 05:27:23;;;;;;;;;;;22.60;92.90;;;;;;5115533;28;19960;-46
2023/06/11 05:29:49;;;;;;;;;;;22.50;92.90;;;;;;5115232;28;19908;-43
2023/06/11 05:32:14;;;;;;;;;;;22.60;92.90;;;;;;5115256;28;19915;-44
2023/06/11 05:34:40;;;;;;;;;;;22.60;93.00;;;;;;5115159;28;19950;-46
2023/06/11 05:37:06;;;;;;;;;;;22.50;92.90;;;;;;5115192;28;19908;-44
2023/06/11 05:39:31;;;;;;;;;;;22.50;92.90;;;;;;5115056;28;19915;-43
2023/06/11 05:41:57;;;;;;;;;;;22.50;92.90;;;;;;5114939;28;19916;-44
2023/06/11 05:44:22;;;;;;;;;;;22.50;93.00;;;;;;5114916;28;19911;-43
2023/06/11 05:46:48;;;;;;;;;;;22.50;93.00;;;;;;5114879;28;19919;-45
2023/06/11 05:49:13;;;;;;;;;;;22.60;93.00;;;;;;5114557;28;19908;-42
2023/06/11 05:51:39;;;;;;;;;;;22.50;93.00;;;;;;5114419;28;20019;-43
2023/06/11 05:54:04;;;;;;;;;;;22.50;92.90;;;;;;5096236;28;19908;-43
2023/06/11 05:56:30;;;;;;;;;;;22.50;92.80;;;;;;5114680;28;20266;-46
2023/06/11 05:58:55;;;;;;;;;;;22.50;92.80;;;;;;5114724;28;19908;-44
2023/06/11 06:01:21;;;;;;;;;;;22.50;92.80;;;;;;5114663;28;19908;-43
2023/06/11 06:03:47;;;;;;;;;;;22.50;92.70;;;;;;5114621;28;19915;-49
2023/06/11 06:06:12;;;;;;;;;;;22.50;92.70;;;;;;5114379;28;20014;-44
2023/06/11 06:08:38;;;;;;;;;;;22.50;92.70;;;;;;5114472;28;19908;-47
2023/06/11 06:11:03;;;;;;;;;;;22.50;92.70;;;;;;5114441;28;20003;-46
2023/06/11 06:13:29;;;;;;;;;;;22.60;92.70;;;;;;5114437;28;20362;-45
2023/06/11 06:15:54;;;;;;;;;;;22.50;92.70;;;;;;5114270;28;19907;-44
2023/06/11 06:18:20;;;;;;;;;;;22.50;92.70;;;;;;5114539;28;19912;-46
2023/06/11 06:20:46;;;;;;;;;;;22.50;92.70;;;;;;5114215;28;19912;-43
2023/06/11 06:23:11;;;;;;;;;;;22.50;92.60;;;;;;5114453;28;19959;-44
2023/06/11 06:25:38;;;;;;;;;;;22.50;92.60;;;;;;5114724;28;19947;-47
2023/06/11 06:28:06;;;;;;;;;;;22.50;92.60;;;;;;5114639;28;20389;-44
2023/06/11 06:30:35;;;;;;;;;;;22.50;92.60;;;;;;5114622;28;19915;-46
2023/06/11 06:33:00;;;;;;;;;;;22.50;92.50;;;;;;5114132;28;20011;-46
2023/06/11 06:35:26;;;;;;;;;;;22.50;92.50;;;;;;5114153;28;20044;-49
2023/06/11 06:37:51;;;;;;;;;;;22.50;92.50;;;;;;5114137;28;19908;-45
2023/06/11 06:40:17;;;;;;;;;;;22.50;92.50;;;;;;5114032;28;19933;-48
2023/06/11 06:42:43;;;;;;;;;;;22.50;92.60;;;;;;5114341;28;20366;-43
2023/06/11 06:45:08;;;;;;;;;;;22.50;92.60;;;;;;5118001;28;19907;-46
2023/06/11 06:47:34;;;;;;;;;;;22.50;92.50;;;;;;5118156;28;20377;-46
2023/06/11 06:50:00;;;;;;;;;;;22.50;92.50;;;;;;5117995;28;19912;-45
2023/06/11 06:52:25;;;;;;;;;;;22.50;92.50;;;;;;5117985;28;19923;-48
2023/06/11 06:54:51;;;;;;;;;;;22.50;92.50;;;;;;5118404;28;19908;-44
2023/06/11 06:57:17;;;;;;;;;;;22.50;92.50;;;;;;5118155;28;19908;-46
2023/06/11 06:59:43;;;;;;;;;;;22.50;92.40;;;;;;5099819;28;19911;-48
2023/06/11 07:02:09;;;;;;;;;;;22.50;92.40;;;;;;5117924;28;19908;-46
2023/06/11 07:04:34;;;;;;;;;;;22.50;92.50;;;;;;5113917;28;20404;-46
2023/06/11 07:07:00;;;;;;;;;;;22.50;92.50;;;;;;5092838;28;20382;-45
2023/06/11 07:09:25;;;;;;;;;;;22.50;92.50;;;;;;5099552;28;19920;-43
2023/06/11 07:11:52;;;;;;;;;;;22.50;92.60;;;;;;5077933;28;19934;-46
2023/06/11 07:14:18;;;;;;;;;;;22.50;92.70;;;;;;5097316;28;19913;-48
2023/06/11 07:16:44;;;;;;;;;;;22.50;92.80;;;;;;5114761;28;19915;-45
2023/06/11 07:19:10;;;;;;;;;;;22.60;92.80;;;;;;5097337;28;20361;-47
2023/06/11 07:21:36;;;;;;;;;;;22.50;92.80;;;;;;5097260;28;20047;-46
2023/06/11 07:24:04;;;;;;;;;;;22.60;92.80;;;;;;5097054;28;19908;-45
2023/06/11 07:26:30;;;;;;;;;;;22.50;92.80;;;;;;5097084;28;19948;-47
2023/06/11 07:28:56;;;;;;;;;;;22.60;92.70;;;;;;5095240;28;19954;-47
2023/06/11 07:31:21;;;;;;;;;;;22.50;92.60;;;;;;5096245;28;19920;-46
2023/06/11 07:33:47;;;;;;;;;;;22.50;92.70;;;;;;5116277;28;19915;-47
2023/06/11 07:36:13;;;;;;;;;;;22.50;92.70;;;;;;5117206;28;20365;-45
2023/06/11 07:38:38;;;;;;;;;;;22.50;92.60;;;;;;5117427;28;19907;-44
2023/06/11 07:41:04;;;;;;;;;;;22.50;92.60;;;;;;5116980;28;20060;-46
2023/06/11 07:43:29;;;;;;;;;;;22.50;92.60;;;;;;5096515;28;19908;-43
2023/06/11 07:45:55;;;;;;;;;;;22.50;92.60;;;;;;5113119;28;19911;-46
2023/06/11 07:48:20;;;;;;;;;;;22.50;92.60;;;;;;5116169;28;20256;-46
2023/06/11 07:50:48;;;;;;;;;;;22.50;92.60;;;;;;5108912;28;19915;-43
2023/06/11 07:53:14;;;;;;;;;;;22.60;92.60;;;;;;5096283;28;19912;-46
2023/06/11 07:55:41;;;;;;;;;;;22.60;92.60;;;;;;5094303;28;20006;-45
2023/06/11 07:58:06;;;;;;;;;;;22.60;92.50;;;;;;5108239;28;20001;-45
2023/06/11 08:00:32;;;;;;;;;;;22.60;92.70;;;;;;5104237;28;20399;-42
2023/06/11 08:02:57;;;;;;;;;;;22.60;92.50;;;;;;5103742;28;19957;-43
2023/06/11 08:05:23;;;;;;;;;;;22.60;92.50;;;;;;5096064;28;20405;-43
2023/06/11 08:07:48;;;;;;;;;;;22.60;92.60;;;;;;5078294;28;19949;-46
2023/06/11 08:10:14;;;;;;;;;;;22.60;92.60;;;;;;5095913;28;19904;-49
2023/06/11 08:12:40;;;;;;;;;;;22.60;92.70;;;;;;5115000;28;19922;-45
2023/06/11 08:15:06;;;;;;;;;;;22.60;92.70;;;;;;5098270;28;19904;-44
2023/06/11 08:17:32;;;;;;;;;;;22.60;92.70;;;;;;5116651;28;19904;-44
2023/06/11 08:19:59;;;;;;;;;;;22.60;92.80;;;;;;5116566;28;19903;-43
2023/06/11 08:22:24;;;;;;;;;;;22.60;92.80;;;;;;5097421;28;19954;-45
2023/06/11 08:24:50;;;;;;;;;;;22.60;92.80;;;;;;5104026;28;19907;-43
2023/06/11 08:27:15;;;;;;;;;;;22.60;92.80;;;;;;5097044;28;19953;-44
2023/06/11 08:29:41;;;;;;;;;;;22.60;92.90;;;;;;5095783;28;19908;-52
2023/06/11 08:32:07;;;;;;;;;;;22.60;92.80;;;;;;5095781;28;19916;-43
2023/06/11 08:34:32;;;;;;;;;;;22.60;92.80;;;;;;5095612;28;19957;-44
2023/06/11 08:36:58;;;;;;;;;;;22.60;92.80;;;;;;5095372;28;19999;-43
2023/06/11 08:39:23;;;;;;;;;;;22.60;92.70;;;;;;5095683;28;19996;-47
2023/06/11 08:41:49;;;;;;;;;;;22.60;92.70;;;;;;5095318;28;19916;-46
2023/06/11 08:44:15;;;;;;;;;;;22.60;92.70;;;;;;5095516;28;19912;-44
2023/06/11 08:46:42;;;;;;;;;;;22.60;92.80;;;;;;5095268;28;19920;-47
2023/06/11 08:49:11;;;;;;;;;;;22.60;92.70;;;;;;5095129;28;20279;-45
2023/06/11 08:51:37;;;;;;;;;;;22.60;92.70;;;;;;5077228;28;20363;-45
2023/06/11 08:54:05;;;;;;;;;;;22.60;92.70;;;;;;5095511;28;19931;-43
2023/06/11 08:56:31;;;;;;;;;;;22.60;92.70;;;;;;5095414;28;19908;-44
2023/06/11 08:58:58;;;;;;;;;;;22.60;92.60;;;;;;5095222;28;20343;-45
2023/06/11 09:01:24;;;;;;;;;;;22.60;92.60;;;;;;5095162;28;19908;-43
2023/06/11 09:03:50;;;;;;;;;;;22.60;92.60;;;;;;5095069;28;19931;-48
2023/06/11 09:06:17;;;;;;;;;;;22.60;92.60;;;;;;5094882;28;19915;-47
2023/06/11 09:08:42;;;;;;;;;;;22.60;92.70;;;;;;5095277;28;20045;-45
2023/06/11 09:11:08;;;;;;;;;;;22.60;92.70;;;;;;5097502;28;20370;-48
2023/06/11 09:13:33;;;;;;;;;;;22.60;92.70;;;;;;5103366;28;19920;-43
2023/06/11 09:15:59;;;;;;;;;;;22.60;92.80;;;;;;5104083;28;20282;-46
2023/06/11 09:18:26;;;;;;;;;;;22.60;92.70;;;;;;5102309;28;19938;-43
2023/06/11 09:20:56;;;;;;;;;;;22.60;92.60;;;;;;5093728;28;19919;-43
2023/06/11 09:23:29;;;;;;;;;;;22.60;92.60;;;;;;5093738;28;19962;-44
2023/06/11 09:25:55;;;;;;;;;;;22.60;92.70;;;;;;5092577;28;19946;-49
2023/06/11 09:28:26;;;;;;;;;;;22.60;92.60;;;;;;5095013;28;20003;-43
2023/06/11 09:30:53;;;;;;;;;;;22.60;92.50;;;;;;5096832;28;20355;-41
2023/06/11 09:33:18;;;;;;;;;;;22.60;92.60;;;;;;5102884;28;19915;-41
2023/06/11 09:35:44;;;;;;;;;;;22.60;92.80;;;;;;5095390;28;20011;-41
2023/06/11 09:38:15;;;;;;;;;;;22.60;92.70;;;;;;5099280;28;19918;-45
2023/06/11 09:40:44;;;;;;;;;;;22.60;92.70;;;;;;5089831;28;20367;-44
2023/06/11 09:43:09;;;;;;;;;;;22.60;92.70;;;;;;5094154;28;20345;-46
2023/06/11 09:45:35;;;;;;;;;;;22.60;92.70;;;;;;5094240;28;20003;-44
2023/06/11 09:48:02;;;;;;;;;;;22.60;92.60;;;;;;5095057;28;19978;-45
2023/06/11 09:50:28;;;;;;;;;;;22.60;92.60;;;;;;5094455;28;19908;-45
2023/06/11 09:52:54;;;;;;;;;;;22.60;92.60;;;;;;5094181;28;20294;-43
2023/06/11 09:55:21;;;;;;;;;;;22.60;92.60;;;;;;5094434;28;19969;-43
2023/06/11 09:57:47;;;;;;;;;;;22.60;92.60;;;;;;5098002;28;19919;-43
2023/06/11 10:00:13;;;;;;;;;;;22.60;92.70;;;;;;5112404;28;19916;-47
2023/06/11 10:02:39;;;;;;;;;;;22.60;92.60;;;;;;5065102;28;20333;-43
2023/06/11 10:05:06;;;;;;;;;;;22.60;92.50;;;;;;5073623;28;19908;-44
2023/06/11 10:07:35;;;;;;;;;;;22.60;92.80;;;;;;5073944;28;19909;-44
2023/06/11 10:10:01;;;;;;;;;;;22.60;92.50;;;;;;5074027;28;20417;-42
2023/06/11 10:12:32;;;;;;;;;;;22.60;92.50;;;;;;5073971;28;19917;-42
2023/06/11 10:14:58;;;;;;;;;;;22.60;92.50;;;;;;5073872;28;19916;-46
2023/06/11 10:17:24;;;;;;;;;;;22.60;92.50;;;;;;5072865;28;19954;-43
2023/06/11 10:19:51;;;;;;;;;;;22.60;92.50;;;;;;5073890;28;20003;-43
2023/06/11 10:22:35;;;;;;;;;;;22.60;92.50;;;;;;5073786;28;19908;-44
2023/06/11 10:25:02;;;;;;;;;;;22.60;92.50;;;;;;5073406;28;20042;-44
2023/06/11 10:27:34;;;;;;;;;;;22.60;92.80;;;;;;5073797;28;19909;-46
2023/06/11 10:30:00;;;;;;;;;;;22.60;92.50;;;;;;5073490;28;19908;-44
2023/06/11 10:32:25;;;;;;;;;;;22.60;92.40;;;;;;5073355;28;19923;-44
2023/06/11 10:34:55;;;;;;;;;;;22.60;92.40;;;;;;5073626;28;20391;-42
2023/06/11 10:37:31;;;;;;;;;;;22.60;92.40;;;;;;5074078;28;19909;-44
2023/06/11 10:39:57;;;;;;;;;;;22.60;92.30;;;;;;5073680;28;19931;-43
2023/06/11 10:42:24;;;;;;;;;;;22.60;92.40;;;;;;5073676;28;20359;-45
2023/06/11 10:44:49;;;;;;;;;;;22.60;92.50;;;;;;5083321;28;19912;-43
2023/06/11 10:47:15;;;;;;;;;;;22.60;92.50;;;;;;5093542;28;19920;-44
2023/06/11 10:49:40;;;;;;;;;;;22.60;92.50;;;;;;5093494;28;20006;-43
2023/06/11 10:52:06;;;;;;;;;;;22.60;92.50;;;;;;5093704;28;20057;-44
2023/06/11 10:54:36;;;;;;;;;;;22.60;92.40;;;;;;5093444;28;19951;-45
2023/06/11 10:57:02;;;;;;;;;;;22.60;92.40;;;;;;5093509;28;20425;-45
2023/06/11 10:59:29;;;;;;;;;;;22.60;92.30;;;;;;5093770;28;19908;-45
2023/06/11 11:01:55;;;;;;;;;;;22.60;92.30;;;;;;5093311;28;19908;-42
2023/06/11 11:04:23;;;;;;;;;;;22.60;92.20;;;;;;5092732;28;19912;-44
2023/06/11 11:07:03;;;;;;;;;;;22.60;92.20;;;;;;5093449;28;19908;-42
2023/06/11 11:09:29;;;;;;;;;;;22.60;92.20;;;;;;5111015;28;19942;-44
2023/06/11 11:11:58;;;;;;;;;;;22.60;92.20;;;;;;5094916;28;19908;-44
2023/06/11 11:14:24;;;;;;;;;;;22.60;92.20;;;;;;5106065;28;20420;-46
2023/06/11 11:16:49;;;;;;;;;;;22.60;92.10;;;;;;5107494;28;19913;-43
2023/06/11 11:19:15;;;;;;;;;;;22.60;92.20;;;;;;5102077;28;19966;-42
2023/06/11 11:21:42;;;;;;;;;;;22.60;92.10;;;;;;5099308;28;19912;-43
2023/06/11 11:24:09;;;;;;;;;;;22.60;92.10;;;;;;5100983;28;20362;-42
2023/06/11 11:26:42;;;;;;;;;;;22.60;92.10;;;;;;5111086;28;19914;-44
2023/06/11 11:29:07;;;;;;;;;;;22.60;92.10;;;;;;5114935;28;19912;-46
2023/06/11 11:31:33;;;;;;;;;;;22.60;92.10;;;;;;5098064;28;19965;-44
2023/06/11 11:33:58;;;;;;;;;;;22.60;92.10;;;;;;5096883;28;19923;-42
2023/06/11 11:36:24;;;;;;;;;;;22.60;92.20;;;;;;5097926;28;19912;-44
2023/06/11 11:38:50;;;;;;;;;;;22.60;92.00;;;;;;5096820;28;20020;-43
2023/06/11 11:41:20;;;;;;;;;;;22.60;91.90;;;;;;5096498;28;19942;-43
2023/06/11 11:43:48;;;;;;;;;;;22.60;91.80;;;;;;5096463;28;19908;-43
2023/06/11 11:46:17;;;;;;;;;;;22.60;91.80;;;;;;5096516;28;19919;-44
2023/06/11 11:48:43;;;;;;;;;;;22.60;92.00;;;;;;5096946;28;20011;-46
2023/06/11 11:51:08;;;;;;;;;;;22.60;91.80;;;;;;5096352;28;19955;-42
2023/06/11 11:53:35;;;;;;;;;;;22.60;91.80;;;;;;5096555;28;20374;-43
2023/06/11 11:56:02;;;;;;;;;;;22.60;91.80;;;;;;5096302;28;19912;-44
2023/06/11 11:58:27;;;;;;;;;;;22.60;91.80;;;;;;5096239;28;19915;-43
2023/06/11 12:00:54;;;;;;;;;;;22.60;91.80;;;;;;5096435;28;19913;-45
2023/06/11 12:03:21;;;;;;;;;;;22.60;91.70;;;;;;5096331;28;19908;-44
2023/06/11 12:06:00;;;;;;;;;;;22.60;91.70;;;;;;5096579;28;19943;-45
2023/06/11 12:08:26;;;;;;;;;;;22.60;91.70;;;;;;5096286;28;19958;-43
2023/06/11 12:10:51;;;;;;;;;;;22.60;91.80;;;;;;5096383;28;19909;-43
2023/06/11 12:13:17;;;;;;;;;;;22.60;91.90;;;;;;5096268;28;19955;-42
2023/06/11 12:15:42;;;;;;;;;;;22.60;91.80;;;;;;5096539;28;19966;-44
2023/06/11 12:18:07;;;;;;;;;;;22.60;91.70;;;;;;5096081;28;19912;-45
2023/06/11 12:20:33;;;;;;;;;;;22.60;91.60;;;;;;5095841;28;19912;-43
2023/06/11 12:22:58;;;;;;;;;;;22.60;91.60;;;;;;5077720;28;20070;-43
2023/06/11 12:25:25;;;;;;;;;;;22.60;91.60;;;;;;5095967;28;19908;-42
2023/06/11 12:27:51;;;;;;;;;;;22.60;91.60;;;;;;5096014;28;20053;-43
2023/06/11 12:30:17;;;;;;;;;;;22.60;91.60;;;;;;5095984;28;19908;-46
2023/06/11 12:32:43;;;;;;;;;;;22.60;91.60;;;;;;5095446;28;19927;-45
2023/06/11 12:35:08;;;;;;;;;;;22.60;91.60;;;;;;5095800;28;19916;-44
2023/06/11 12:37:34;;;;;;;;;;;22.60;91.60;;;;;;5095529;28;19908;-44
2023/06/11 12:40:00;;;;;;;;;;;22.60;91.60;;;;;;5092735;28;19998;-44
2023/06/11 12:42:27;;;;;;;;;;;22.60;91.50;;;;;;5094961;28;19974;-44
2023/06/11 12:44:53;;;;;;;;;;;22.60;91.60;;;;;;5095469;28;19978;-44
2023/06/11 12:47:18;;;;;;;;;;;22.60;91.60;;;;;;5095405;28;20366;-43
2023/06/11 12:49:45;;;;;;;;;;;22.60;91.60;;;;;;5095508;28;19915;-43
2023/06/11 12:52:11;;;;;;;;;;;22.60;91.70;;;;;;5095226;28;19961;-44
2023/06/11 12:54:39;;;;;;;;;;;22.60;91.70;;;;;;5093359;28;20308;-44
2023/06/11 12:57:05;;;;;;;;;;;22.60;91.60;;;;;;5101994;28;19912;-43
2023/06/11 12:59:30;;;;;;;;;;;22.60;91.70;;;;;;5107314;28;19943;-43
2023/06/11 13:01:56;;;;;;;;;;;22.60;91.70;;;;;;5094500;28;19908;-43
2023/06/11 13:04:22;;;;;;;;;;;22.60;91.60;;;;;;5093454;28;19908;-43
2023/06/11 13:06:47;;;;;;;;;;;22.60;91.70;;;;;;5091560;28;19957;-46
2023/06/11 13:09:13;;;;;;;;;;;22.60;91.70;;;;;;5092621;28;19942;-44
2023/06/11 13:11:39;;;;;;;;;;;22.60;91.80;;;;;;5089404;28;19952;-43
2023/06/11 13:14:04;;;;;;;;;;;22.60;91.80;;;;;;5109147;28;19911;-43
2023/06/11 13:16:30;;;;;;;;;;;22.60;91.80;;;;;;5115149;28;20341;-42
2023/06/11 13:18:59;;;;;;;;;;;22.60;91.60;;;;;;5115581;28;20338;-46
2023/06/11 13:21:26;;;;;;;;;;;22.60;91.60;;;;;;5115245;28;20262;-43
2023/06/11 13:23:51;;;;;;;;;;;22.60;91.80;;;;;;5115293;28;19929;-43
2023/06/11 13:26:17;;;;;;;;;;;22.60;91.80;;;;;;5096721;28;19904;-45
2023/06/11 13:28:43;;;;;;;;;;;22.60;91.80;;;;;;5115221;28;19910;-45
2023/06/11 13:31:09;;;;;;;;;;;22.60;91.70;;;;;;5114741;28;19910;-44
2023/06/11 13:33:35;;;;;;;;;;;22.60;91.70;;;;;;5115025;28;20002;-43
2023/06/11 13:36:00;;;;;;;;;;;22.60;91.60;;;;;;5115113;28;19915;-42
2023/06/11 13:38:26;;;;;;;;;;;22.60;91.40;;;;;;5115520;28;19957;-44
2023/06/11 13:40:52;;;;;;;;;;;22.60;91.50;;;;;;5115111;28;19910;-44
2023/06/11 13:43:17;;;;;;;;;;;22.60;91.50;;;;;;5114668;28;19903;-43
2023/06/11 13:45:44;;;;;;;;;;;22.60;91.40;;;;;;5114897;28;20306;-46
2023/06/11 13:48:10;;;;;;;;;;;22.60;91.30;;;;;;5114855;28;19916;-43
2023/06/11 13:50:36;;;;;;;;;;;22.60;91.20;;;;;;5114881;28;19907;-44
2023/06/11 13:53:01;;;;;;;;;;;22.60;91.20;;;;;;5113755;28;20409;-46
2023/06/11 13:55:27;;;;;;;;;;;22.60;91.30;;;;;;5096481;28;19915;-43
2023/06/11 13:57:52;;;;;;;;;;;22.60;91.40;;;;;;5114490;28;19912;-42
2023/06/11 14:00:18;;;;;;;;;;;22.60;91.30;;;;;;5114697;28;19910;-46
2023/06/11 14:02:43;;;;;;;;;;;22.60;91.30;;;;;;5114299;28;19929;-44
2023/06/11 14:05:09;;;;;;;;;;;22.60;91.40;;;;;;5096035;28;19915;-46
2023/06/11 14:07:35;;;;;;;;;;;22.60;91.30;;;;;;5114584;28;20006;-44
2023/06/11 14:10:04;;;;;;;;;;;22.60;91.60;;;;;;5114582;28;19904;-42